DW2641 Leeds UK current weather conditions

sailwx.info

Wind from 360 at 4 knots gusting 7

Air temperature 9.4° C
Dewpoint 1.4° C

Last reported at 2019-Sep-17 04:05 UTC.
Time now 2019-Sep-17 04:43 UTC

Location: N 53°49' W 001°35'.
View on Google Maps.

See reports from other nearby stations

  
Tides and Currents Weather Stations Pressure Air Temp Water Temp Dewpoint Dewpoint Depression Visibility Wind Speed Wind Dir Waves Ship Positions
date/time (UTC)wind fromknots sea level pressurealtimeterstation pressurevisibilityair tempwater tempwave heightnotes
2019-Sep-17 04:05 360 4 gusting 7 9.4
2019-Sep-17 03:38 360 4 gusting 7 10.0
2019-Sep-17 03:11 360 3 gusting 6 10.0
2019-Sep-17 03:02 360 2 gusting 5 10.0
2019-Sep-17 02:53 360 3 gusting 6 10.0
2019-Sep-17 02:35 360 2 gusting 5 10.0
2019-Sep-17 02:26 360 0 gusting 2 10.0
2019-Sep-17 01:59 360 2 gusting 4 10.0
2019-Sep-17 01:50 360 3 gusting 5 10.0
2019-Sep-17 01:41 360 4 gusting 6 10.0
2019-Sep-17 01:23 360 0 gusting 2 10.0
2019-Sep-17 01:14 360 1 gusting 3 10.0
2019-Sep-17 01:05 360 1 gusting 3 10.6
2019-Sep-17 00:56 360 2 gusting 3 10.6
2019-Sep-17 00:38 360 1 gusting 3 10.6
2019-Sep-17 00:29 360 3 gusting 4 10.6
2019-Sep-16 23:35 360 3 gusting 4 10.6
2019-Sep-16 23:26 360 3 gusting 5 10.6
2019-Sep-16 23:17 360 2 gusting 4 11.1
2019-Sep-16 23:08 360 3 gusting 4 11.1
2019-Sep-16 22:59 360 3 gusting 5 11.1
2019-Sep-16 22:50 360 1 gusting 3 11.1
2019-Sep-16 22:23 360 0 gusting 2 11.7
2019-Sep-16 22:14 360 2 gusting 3 11.7
2019-Sep-16 22:05 360 3 gusting 4 11.7
2019-Sep-16 21:56 360 4 gusting 4 11.7
2019-Sep-16 21:47 360 4 gusting 5 11.7
2019-Sep-16 21:38 360 3 gusting 5 12.2
2019-Sep-16 21:11 360 1 gusting 4 12.2
2019-Sep-16 21:02 12.2
2019-Sep-16 20:53 12.2
2019-Sep-16 20:44 12.8
2019-Sep-16 20:35 12.8
2019-Sep-16 20:26 360 0 gusting 3 12.8
2019-Sep-16 20:08 13.3
2019-Sep-16 19:59 360 0 gusting 3 13.3
2019-Sep-16 19:50 360 0 gusting 2 13.3
2019-Sep-16 19:41 360 1 gusting 3 13.9
2019-Sep-16 19:32 360 1 gusting 3 13.9
2019-Sep-16 19:23 360 2 gusting 3 14.4
2019-Sep-16 19:14 360 0 gusting 3 14.4
2019-Sep-16 19:05 360 1 gusting 4 14.4
2019-Sep-16 18:56 15.0
2019-Sep-16 18:47 360 1 gusting 3 15.0
2019-Sep-16 18:29 360 1 gusting 3 15.6
2019-Sep-16 18:02 360 3 gusting 5 16.1
2019-Sep-16 17:35 360 3 gusting 9 17.8
2019-Sep-16 17:17 17.8
2019-Sep-16 17:08 360 4 gusting 12 17.8
2019-Sep-16 16:59 360 6 gusting 8 17.8
2019-Sep-16 16:41 360 3 gusting 7 17.8
2019-Sep-16 16:23 360 2 gusting 4 18.3
2019-Sep-16 16:14 360 2 gusting 7 18.3
2019-Sep-16 15:47 360 4 gusting 9 18.3
2019-Sep-16 15:38 360 5 gusting 7 18.3
2019-Sep-16 15:29 360 2 gusting 4 18.3
2019-Sep-16 15:11 360 3 gusting 4 18.3
2019-Sep-16 15:02 360 1 gusting 6 18.3
2019-Sep-16 14:53 360 2 gusting 6 17.8
2019-Sep-16 14:35 360 1 gusting 6 17.8
2019-Sep-16 14:26 360 2 gusting 5 17.8
2019-Sep-16 14:17 360 2 gusting 6 17.8
2019-Sep-16 14:08 360 2 gusting 6 17.8
2019-Sep-16 13:59 17.8
2019-Sep-16 13:50 17.8
2019-Sep-16 13:32 360 0 gusting 1 17.8
2019-Sep-16 13:23 17.8
2019-Sep-16 13:05 17.2
2019-Sep-16 12:56 360 4 gusting 8 17.2
2019-Sep-16 12:47 360 2 gusting 5 17.2
2019-Sep-16 12:38 17.8
2019-Sep-16 12:20 17.8
2019-Sep-16 12:02 360 3 gusting 8 16.7
2019-Sep-16 11:53 16.7
2019-Sep-16 11:26 360 0 gusting 4 16.7
2019-Sep-16 11:08 360 0 gusting 3 16.7
2019-Sep-16 10:59 360 0 gusting 4 16.7
2019-Sep-16 10:41 360 2 gusting 6 16.1
2019-Sep-16 10:32 360 0 gusting 1 16.1
2019-Sep-16 10:23 360 0 gusting 3 15.6
2019-Sep-16 09:56 15.6
2019-Sep-16 09:38 360 16.1
2019-Sep-16 09:29 15.6
2019-Sep-16 09:20 360 1 gusting 3 15.0
2019-Sep-16 08:53 360 0 gusting 2 15.6
2019-Sep-16 08:44 14.4
2019-Sep-16 08:35 14.4
2019-Sep-16 08:17 13.9
2019-Sep-16 07:50 12.8
2019-Sep-16 07:41 12.8
2019-Sep-16 07:14 12.2
2019-Sep-16 07:05 12.2
2019-Sep-16 06:56 11.7
2019-Sep-16 06:38 11.7
2019-Sep-16 06:29 11.7
2019-Sep-16 06:20 11.7
2019-Sep-16 06:11 11.7
2019-Sep-16 06:02 11.7
2019-Sep-16 05:44 11.7
2019-Sep-16 05:35 11.7
2019-Sep-16 05:26 11.7
2019-Sep-16 05:08 11.7
2019-Sep-16 04:50 11.7
2019-Sep-16 04:41 12.2
2019-Sep-16 04:14 12.2
2019-Sep-16 04:05 12.2
2019-Sep-16 03:47 12.2
2019-Sep-16 03:38 12.2
2019-Sep-16 03:29 12.2
2019-Sep-16 03:20 12.2
2019-Sep-16 03:11 12.2
2019-Sep-16 02:44 12.2
2019-Sep-16 02:35 12.2
2019-Sep-16 02:26 12.2
2019-Sep-16 01:41 12.2
2019-Sep-16 01:14 12.2
2019-Sep-16 01:05 12.2
2019-Sep-16 00:56 360 0 gusting 3 12.2
2019-Sep-16 00:38 12.2
2019-Sep-16 00:11 12.2
2019-Sep-16 00:02 360 12.2
2019-Sep-15 23:44 12.2
2019-Sep-15 23:35 12.2
2019-Sep-15 23:17 12.2
2019-Sep-15 22:59 12.2
2019-Sep-15 22:50 12.2
2019-Sep-15 22:14 12.8
2019-Sep-15 22:05 12.8
2019-Sep-15 21:38 12.8
2019-Sep-15 20:53 13.3
2019-Sep-15 20:44 13.3
2019-Sep-15 20:08 13.9
2019-Sep-15 19:59 13.9
2019-Sep-15 19:50 13.9
2019-Sep-15 19:41 13.9
2019-Sep-15 19:23 13.9
2019-Sep-15 19:14 14.4
2019-Sep-15 18:56 14.4
2019-Sep-15 18:02 14.4
2019-Sep-15 17:53 360 0 gusting 3 15.0
2019-Sep-15 17:35 15.6
2019-Sep-15 17:26 360 3 gusting 6 15.6
2019-Sep-15 16:32 360 0 gusting 3 16.1
2019-Sep-15 16:23 360 0 gusting 2 16.1
2019-Sep-15 16:14 16.1
2019-Sep-15 16:05 360 1 gusting 5 16.1
2019-Sep-15 15:56 360 0 gusting 3 16.1
2019-Sep-15 15:47 360 0 gusting 5 16.7
2019-Sep-15 15:38 360 1 gusting 5 16.7
2019-Sep-15 15:29 360 2 gusting 6 16.7
2019-Sep-15 15:20 360 2 gusting 4 16.7
2019-Sep-15 15:11 360 3 gusting 6 16.7
2019-Sep-15 15:02 360 1 gusting 5 16.7
2019-Sep-15 14:53 16.7
2019-Sep-15 14:17 360 1 gusting 3 16.7
2019-Sep-15 13:59 360 1 gusting 6 16.7
2019-Sep-15 13:41 360 2 gusting 5 16.7
2019-Sep-15 13:32 360 4 gusting 5 16.7
2019-Sep-15 13:14 16.7
2019-Sep-15 13:05 360 4 gusting 11 17.2
2019-Sep-15 12:20 360 5 gusting 9 17.2
2019-Sep-15 12:11 360 4 gusting 9 17.2
2019-Sep-15 12:02 360 3 gusting 9 17.2
2019-Sep-15 11:53 360 6 gusting 9 17.2
2019-Sep-15 11:35 17.2
2019-Sep-15 11:26 360 3 gusting 5 17.2
2019-Sep-15 11:08 360 4 gusting 6 16.7
2019-Sep-15 10:59 360 6 gusting 8 16.7
2019-Sep-15 10:50 360 6 gusting 11 16.7
2019-Sep-15 10:32 360 5 gusting 9 16.7
2019-Sep-15 10:23 360 6 gusting 11 16.7
2019-Sep-15 09:47 360 6 gusting 10 16.7
2019-Sep-15 09:38 360 4 gusting 9 16.7
2019-Sep-15 09:29 16.7
2019-Sep-15 09:20 360 3 gusting 7 16.7
2019-Sep-15 08:53 360 5 gusting 11 17.2
2019-Sep-15 08:44 360 3 gusting 9 18.3
2019-Sep-15 08:35 360 6 gusting 8 17.8
2019-Sep-15 08:26 360 6 gusting 10 17.8
2019-Sep-15 08:17 360 7 gusting 13 17.2
2019-Sep-15 08:08 360 5 gusting 12 16.7
2019-Sep-15 07:59 360 6 gusting 8 16.1
2019-Sep-15 07:23 360 6 gusting 10 16.7
2019-Sep-15 07:14 360 6 gusting 9 16.7
2019-Sep-15 06:29 360 5 gusting 10 15.6
2019-Sep-15 06:20 360 4 gusting 9 15.6
2019-Sep-15 06:11 360 6 gusting 13 15.6
2019-Sep-15 06:02 360 5 gusting 8 15.6
2019-Sep-15 05:53 360 7 gusting 14 15.6
2019-Sep-15 05:44 360 6 gusting 12 15.6
2019-Sep-15 05:26 360 7 gusting 13 15.6
2019-Sep-15 05:08 360 8 gusting 13 15.6
2019-Sep-15 04:59 360 6 gusting 13 15.6